sensor_id;sensor_type;location;lat;lon;timestamp;pressure;altitude;pressure_sealevel;temperature;humidity
76050;BME280;64967;50.234;19.224;2023-03-03T00:00:06;98720.94;;;-2.48;100.00
76050;BME280;64967;50.234;19.224;2023-03-03T00:02:34;98722.56;;;-2.70;99.93
76050;BME280;64967;50.234;19.224;2023-03-03T00:05:01;98710.91;;;-2.67;100.00
76050;BME280;64967;50.234;19.224;2023-03-03T00:07:28;98715.81;;;-2.74;100.00
76050;BME280;64967;50.234;19.224;2023-03-03T00:09:55;98708.34;;;-2.80;100.00
76050;BME280;64967;50.234;19.224;2023-03-03T00:12:27;98722.03;;;-2.86;100.00
76050;BME280;64967;50.234;19.224;2023-03-03T00:14:55;98715.28;;;-2.90;100.00
76050;BME280;64967;50.234;19.224;2023-03-03T00:17:29;98722.25;;;-2.89;100.00
76050;BME280;64967;50.234;19.224;2023-03-03T00:19:58;98714.03;;;-2.97;100.00
76050;BME280;64967;50.234;19.224;2023-03-03T00:22:35;98710.91;;;-3.02;100.00
76050;BME280;64967;50.234;19.224;2023-03-03T00:27:45;98702.47;;;-3.07;100.00
76050;BME280;64967;50.234;19.224;2023-03-03T00:30:26;98690.63;;;-3.14;100.00
76050;BME280;64967;50.234;19.224;2023-03-03T00:32:54;98683.78;;;-3.17;100.00
76050;BME280;64967;50.234;19.224;2023-03-03T00:35:30;98704.13;;;-3.06;100.00
76050;BME280;64967;50.234;19.224;2023-03-03T00:38:10;98690.44;;;-3.11;100.00
76050;BME280;64967;50.234;19.224;2023-03-03T00:40:39;98701.97;;;-3.12;100.00
76050;BME280;64967;50.234;19.224;2023-03-03T00:43:24;98698.69;;;-3.16;100.00
76050;BME280;64967;50.234;19.224;2023-03-03T00:45:53;98699.06;;;-3.09;100.00
76050;BME280;64967;50.234;19.224;2023-03-03T00:48:27;98701.38;;;-3.04;100.00
76050;BME280;64967;50.234;19.224;2023-03-03T00:50:57;98705.63;;;-3.02;100.00
76050;BME280;64967;50.234;19.224;2023-03-03T00:53:26;98696.53;;;-3.10;100.00
76050;BME280;64967;50.234;19.224;2023-03-03T00:55:54;98695.72;;;-3.11;100.00
76050;BME280;64967;50.234;19.224;2023-03-03T00:58:22;98707.34;;;-3.13;100.00
76050;BME280;64967;50.234;19.224;2023-03-03T01:00:53;98695.81;;;-3.12;100.00
76050;BME280;64967;50.234;19.224;2023-03-03T01:03:24;98699.94;;;-3.08;100.00
76050;BME280;64967;50.234;19.224;2023-03-03T01:05:53;98697.53;;;-3.11;100.00
76050;BME280;64967;50.234;19.224;2023-03-03T01:08:20;98688.94;;;-3.15;100.00
76050;BME280;64967;50.234;19.224;2023-03-03T01:10:56;98700.19;;;-3.24;100.00
76050;BME280;64967;50.234;19.224;2023-03-03T01:13:29;98691.13;;;-3.33;100.00
76050;BME280;64967;50.234;19.224;2023-03-03T01:15:58;98688.81;;;-3.25;100.00
76050;BME280;64967;50.234;19.224;2023-03-03T01:18:26;98687.47;;;-3.19;100.00
76050;BME280;64967;50.234;19.224;2023-03-03T01:20:53;98682.94;;;-3.17;100.00
76050;BME280;64967;50.234;19.224;2023-03-03T01:23:20;98673.22;;;-3.17;100.00
76050;BME280;64967;50.234;19.224;2023-03-03T01:25:48;98681.34;;;-3.20;100.00
76050;BME280;64967;50.234;19.224;2023-03-03T01:28:15;98671.19;;;-3.13;100.00
76050;BME280;64967;50.234;19.224;2023-03-03T01:30:41;98665.88;;;-3.13;100.00
76050;BME280;64967;50.234;19.224;2023-03-03T01:33:09;98664.88;;;-3.23;100.00
76050;BME280;64967;50.234;19.224;2023-03-03T01:35:36;98660.06;;;-3.29;100.00
76050;BME280;64967;50.234;19.224;2023-03-03T01:38:03;98646.78;;;-3.40;100.00
76050;BME280;64967;50.234;19.224;2023-03-03T01:40:30;98656.22;;;-3.25;100.00
76050;BME280;64967;50.234;19.224;2023-03-03T01:43:00;98653.34;;;-3.22;100.00
76050;BME280;64967;50.234;19.224;2023-03-03T01:45:40;98654.97;;;-3.32;100.00
76050;BME280;64967;50.234;19.224;2023-03-03T01:48:20;98653.75;;;-3.39;100.00
76050;BME280;64967;50.234;19.224;2023-03-03T01:50:51;98648.25;;;-3.36;100.00
76050;BME280;64967;50.234;19.224;2023-03-03T01:53:35;98652.31;;;-3.43;100.00
76050;BME280;64967;50.234;19.224;2023-03-03T01:56:06;98641.16;;;-3.36;100.00
76050;BME280;64967;50.234;19.224;2023-03-03T01:58:38;98640.31;;;-3.36;100.00
76050;BME280;64967;50.234;19.224;2023-03-03T02:01:18;98646.53;;;-3.37;100.00
76050;BME280;64967;50.234;19.224;2023-03-03T02:03:46;98649.88;;;-3.46;100.00
76050;BME280;64967;50.234;19.224;2023-03-03T02:06:16;98647.69;;;-3.52;100.00
76050;BME280;64967;50.234;19.224;2023-03-03T02:09:15;98654.44;;;-3.48;100.00
76050;BME280;64967;50.234;19.224;2023-03-03T02:12:07;98658.19;;;-3.40;100.00
76050;BME280;64967;50.234;19.224;2023-03-03T02:14:43;98649.94;;;-3.35;100.00
76050;BME280;64967;50.234;19.224;2023-03-03T02:17:20;98639.13;;;-3.32;100.00
76050;BME280;64967;50.234;19.224;2023-03-03T02:20:32;98650.44;;;-3.30;100.00
76050;BME280;64967;50.234;19.224;2023-03-03T02:23:21;98652.22;;;-3.31;100.00
76050;BME280;64967;50.234;19.224;2023-03-03T02:26:05;98654.03;;;-3.31;100.00
76050;BME280;64967;50.234;19.224;2023-03-03T02:28:35;98661.41;;;-3.47;100.00
76050;BME280;64967;50.234;19.224;2023-03-03T02:31:05;98657.94;;;-3.48;99.92
76050;BME280;64967;50.234;19.224;2023-03-03T02:33:33;98658.97;;;-3.50;100.00
76050;BME280;64967;50.234;19.224;2023-03-03T02:35:59;98669.03;;;-3.55;100.00
76050;BME280;64967;50.234;19.224;2023-03-03T02:38:31;98658.25;;;-3.52;100.00
76050;BME280;64967;50.234;19.224;2023-03-03T02:41:20;98659.94;;;-3.51;100.00
76050;BME280;64967;50.234;19.224;2023-03-03T02:44:00;98656.13;;;-3.47;100.00
76050;BME280;64967;50.234;19.224;2023-03-03T02:46:32;98656.47;;;-3.52;100.00
76050;BME280;64967;50.234;19.224;2023-03-03T02:49:00;98661.56;;;-3.62;100.00
76050;BME280;64967;50.234;19.224;2023-03-03T02:51:27;98659.53;;;-3.58;100.00
76050;BME280;64967;50.234;19.224;2023-03-03T02:53:54;98654.88;;;-3.54;100.00
76050;BME280;64967;50.234;19.224;2023-03-03T02:56:21;98654.66;;;-3.51;100.00
76050;BME280;64967;50.234;19.224;2023-03-03T02:58:49;98644.31;;;-3.54;99.90
76050;BME280;64967;50.234;19.224;2023-03-03T03:01:16;98647.44;;;-3.49;100.00
76050;BME280;64967;50.234;19.224;2023-03-03T03:03:43;98651.78;;;-3.48;99.56
76050;BME280;64967;50.234;19.224;2023-03-03T03:06:10;98650.19;;;-3.51;99.07
76050;BME280;64967;50.234;19.224;2023-03-03T03:08:37;98654.66;;;-3.51;98.70
76050;BME280;64967;50.234;19.224;2023-03-03T03:11:04;98656.56;;;-3.53;98.91
76050;BME280;64967;50.234;19.224;2023-03-03T03:13:32;98648.88;;;-3.56;97.40
76050;BME280;64967;50.234;19.224;2023-03-03T03:15:59;98656.06;;;-3.58;97.12
76050;BME280;64967;50.234;19.224;2023-03-03T03:18:27;98653.75;;;-3.63;97.04
76050;BME280;64967;50.234;19.224;2023-03-03T03:20:53;98648.56;;;-3.65;97.09
76050;BME280;64967;50.234;19.224;2023-03-03T03:23:20;98645.09;;;-3.65;97.08
76050;BME280;64967;50.234;19.224;2023-03-03T03:25:48;98640.88;;;-3.68;96.37
76050;BME280;64967;50.234;19.224;2023-03-03T03:28:16;98633.44;;;-3.86;97.55
76050;BME280;64967;50.234;19.224;2023-03-03T03:30:43;98645.03;;;-3.76;98.02
76050;BME280;64967;50.234;19.224;2023-03-03T03:33:11;98643.94;;;-3.74;97.88
76050;BME280;64967;50.234;19.224;2023-03-03T03:35:38;98650.06;;;-3.73;98.38
76050;BME280;64967;50.234;19.224;2023-03-03T03:38:11;98641.03;;;-3.82;97.92
76050;BME280;64967;50.234;19.224;2023-03-03T03:40:39;98641.69;;;-3.91;98.61
76050;BME280;64967;50.234;19.224;2023-03-03T03:43:06;98638.22;;;-4.04;99.55
76050;BME280;64967;50.234;19.224;2023-03-03T03:45:33;98641.09;;;-4.07;99.03
76050;BME280;64967;50.234;19.224;2023-03-03T03:48:00;98640.16;;;-4.06;99.01
76050;BME280;64967;50.234;19.224;2023-03-03T03:50:27;98638.69;;;-4.10;98.85
76050;BME280;64967;50.234;19.224;2023-03-03T03:52:54;98645.44;;;-4.06;98.79
76050;BME280;64967;50.234;19.224;2023-03-03T03:55:21;98630.31;;;-4.04;98.57
76050;BME280;64967;50.234;19.224;2023-03-03T03:57:48;98634.66;;;-4.03;98.15
76050;BME280;64967;50.234;19.224;2023-03-03T04:00:15;98631.25;;;-4.05;97.58
76050;BME280;64967;50.234;19.224;2023-03-03T04:02:42;98634.56;;;-4.14;96.77
76050;BME280;64967;50.234;19.224;2023-03-03T04:05:09;98642.78;;;-4.19;97.51
76050;BME280;64967;50.234;19.224;2023-03-03T04:07:36;98645.56;;;-4.20;97.29
76050;BME280;64967;50.234;19.224;2023-03-03T04:10:04;98652.63;;;-4.21;97.20
76050;BME280;64967;50.234;19.224;2023-03-03T04:12:31;98645.13;;;-4.27;96.94
76050;BME280;64967;50.234;19.224;2023-03-03T04:15:09;98654.94;;;-4.16;97.05
76050;BME280;64967;50.234;19.224;2023-03-03T04:17:36;98652.53;;;-4.19;96.98
76050;BME280;64967;50.234;19.224;2023-03-03T04:20:04;98665.63;;;-4.30;96.43
76050;BME280;64967;50.234;19.224;2023-03-03T04:22:31;98660.75;;;-4.36;97.29
76050;BME280;64967;50.234;19.224;2023-03-03T04:25:00;98654.53;;;-4.35;97.69
76050;BME280;64967;50.234;19.224;2023-03-03T04:27:32;98656.00;;;-4.31;97.30
76050;BME280;64967;50.234;19.224;2023-03-03T04:30:00;98645.06;;;-4.38;96.42
76050;BME280;64967;50.234;19.224;2023-03-03T04:32:27;98654.22;;;-4.31;96.03
76050;BME280;64967;50.234;19.224;2023-03-03T04:34:54;98644.75;;;-4.33;94.82
76050;BME280;64967;50.234;19.224;2023-03-03T04:37:34;98626.59;;;-4.51;93.89
76050;BME280;64967;50.234;19.224;2023-03-03T04:40:06;98652.75;;;-4.47;94.01
76050;BME280;64967;50.234;19.224;2023-03-03T04:42:34;98643.16;;;-4.48;96.51
76050;BME280;64967;50.234;19.224;2023-03-03T04:45:01;98639.25;;;-4.43;96.76
76050;BME280;64967;50.234;19.224;2023-03-03T04:47:28;98624.91;;;-4.52;96.05
76050;BME280;64967;50.234;19.224;2023-03-03T04:49:55;98647.88;;;-4.41;95.90
76050;BME280;64967;50.234;19.224;2023-03-03T04:52:22;98640.50;;;-4.48;96.23
76050;BME280;64967;50.234;19.224;2023-03-03T04:54:49;98652.22;;;-4.53;96.63
76050;BME280;64967;50.234;19.224;2023-03-03T04:57:16;98645.78;;;-4.48;96.84
76050;BME280;64967;50.234;19.224;2023-03-03T04:59:43;98646.53;;;-4.46;96.55
76050;BME280;64967;50.234;19.224;2023-03-03T05:02:10;98646.44;;;-4.58;96.62
76050;BME280;64967;50.234;19.224;2023-03-03T05:04:38;98648.34;;;-4.60;97.20
76050;BME280;64967;50.234;19.224;2023-03-03T05:07:05;98634.63;;;-4.65;96.85
76050;BME280;64967;50.234;19.224;2023-03-03T05:09:32;98637.78;;;-4.60;96.57
76050;BME280;64967;50.234;19.224;2023-03-03T05:11:59;98641.25;;;-4.59;97.20
76050;BME280;64967;50.234;19.224;2023-03-03T05:14:26;98632.09;;;-4.79;97.16
76050;BME280;64967;50.234;19.224;2023-03-03T05:16:53;98633.78;;;-4.78;96.35
76050;BME280;64967;50.234;19.224;2023-03-03T05:19:20;98649.78;;;-4.68;97.38
76050;BME280;64967;50.234;19.224;2023-03-03T05:21:47;98668.47;;;-4.84;98.97
76050;BME280;64967;50.234;19.224;2023-03-03T05:24:14;98683.75;;;-4.89;100.00
76050;BME280;64967;50.234;19.224;2023-03-03T05:26:41;98681.44;;;-4.93;100.00
76050;BME280;64967;50.234;19.224;2023-03-03T05:29:08;98649.78;;;-5.06;100.00
76050;BME280;64967;50.234;19.224;2023-03-03T05:31:35;98681.44;;;-4.81;100.00
76050;BME280;64967;50.234;19.224;2023-03-03T05:34:02;98678.31;;;-4.73;100.00
76050;BME280;64967;50.234;19.224;2023-03-03T05:36:29;98670.91;;;-4.68;99.36
76050;BME280;64967;50.234;19.224;2023-03-03T05:38:57;98675.53;;;-4.84;97.61
76050;BME280;64967;50.234;19.224;2023-03-03T05:41:24;98690.00;;;-4.77;99.39
76050;BME280;64967;50.234;19.224;2023-03-03T05:43:51;98690.13;;;-4.66;100.00
76050;BME280;64967;50.234;19.224;2023-03-03T05:46:18;98691.81;;;-4.53;99.54
76050;BME280;64967;50.234;19.224;2023-03-03T05:48:58;98681.38;;;-4.41;99.46
76050;BME280;64967;50.234;19.224;2023-03-03T05:51:25;98694.75;;;-4.32;99.28
76050;BME280;64967;50.234;19.224;2023-03-03T05:53:52;98694.88;;;-4.21;98.97
76050;BME280;64967;50.234;19.224;2023-03-03T05:56:22;98696.78;;;-4.10;98.84
76050;BME280;64967;50.234;19.224;2023-03-03T05:58:49;98706.56;;;-3.99;99.28
76050;BME280;64967;50.234;19.224;2023-03-03T06:01:16;98698.84;;;-3.90;99.25
76050;BME280;64967;50.234;19.224;2023-03-03T06:03:43;98699.25;;;-3.83;100.00
76050;BME280;64967;50.234;19.224;2023-03-03T06:06:09;98711.16;;;-3.78;100.00
76050;BME280;64967;50.234;19.224;2023-03-03T06:08:37;98710.50;;;-3.69;100.00
76050;BME280;64967;50.234;19.224;2023-03-03T06:11:04;98719.47;;;-3.58;100.00
76050;BME280;64967;50.234;19.224;2023-03-03T06:13:31;98710.88;;;-3.49;100.00
76050;BME280;64967;50.234;19.224;2023-03-03T06:15:58;98715.50;;;-3.40;100.00
76050;BME280;64967;50.234;19.224;2023-03-03T06:18:25;98724.22;;;-3.27;100.00
76050;BME280;64967;50.234;19.224;2023-03-03T06:20:53;98728.13;;;-3.20;100.00
76050;BME280;64967;50.234;19.224;2023-03-03T06:23:21;98728.16;;;-3.09;100.00
76050;BME280;64967;50.234;19.224;2023-03-03T06:25:48;98721.00;;;-2.96;100.00
76050;BME280;64967;50.234;19.224;2023-03-03T06:28:15;98718.44;;;-2.85;100.00
76050;BME280;64967;50.234;19.224;2023-03-03T06:30:42;98710.75;;;-2.77;99.41
76050;BME280;64967;50.234;19.224;2023-03-03T06:33:09;98716.41;;;-2.70;98.06
76050;BME280;64967;50.234;19.224;2023-03-03T06:35:36;98723.25;;;-2.79;97.40
76050;BME280;64967;50.234;19.224;2023-03-03T06:38:03;98717.84;;;-2.77;98.82
76050;BME280;64967;50.234;19.224;2023-03-03T06:40:30;98711.75;;;-2.66;97.71
76050;BME280;64967;50.234;19.224;2023-03-03T06:42:57;98706.47;;;-2.55;97.01
76050;BME280;64967;50.234;19.224;2023-03-03T06:45:24;98719.50;;;-2.52;96.22
76050;BME280;64967;50.234;19.224;2023-03-03T06:47:51;98729.28;;;-2.65;98.07
76050;BME280;64967;50.234;19.224;2023-03-03T06:50:19;98716.09;;;-2.54;99.08
76050;BME280;64967;50.234;19.224;2023-03-03T06:52:46;98720.88;;;-2.71;99.28
76050;BME280;64967;50.234;19.224;2023-03-03T06:55:21;98718.25;;;-2.59;99.05
76050;BME280;64967;50.234;19.224;2023-03-03T06:57:49;98724.31;;;-2.46;99.34
76050;BME280;64967;50.234;19.224;2023-03-03T07:00:25;98736.34;;;-2.42;99.19
76050;BME280;64967;50.234;19.224;2023-03-03T07:03:01;98713.50;;;-2.43;98.87
76050;BME280;64967;50.234;19.224;2023-03-03T07:05:31;98723.59;;;-2.37;99.25
76050;BME280;64967;50.234;19.224;2023-03-03T07:08:00;98720.63;;;-2.21;97.42
76050;BME280;64967;50.234;19.224;2023-03-03T07:10:29;98729.84;;;-2.38;98.02
76050;BME280;64967;50.234;19.224;2023-03-03T07:15:42;98729.84;;;-2.49;99.74
76050;BME280;64967;50.234;19.224;2023-03-03T07:21:34;98706.09;;;-1.94;99.37
76050;BME280;64967;50.234;19.224;2023-03-03T07:24:25;98712.81;;;-1.67;99.71
76050;BME280;64967;50.234;19.224;2023-03-03T07:29:49;98720.38;;;-1.41;96.52
76050;BME280;64967;50.234;19.224;2023-03-03T07:32:27;98730.75;;;-1.60;93.80
76050;BME280;64967;50.234;19.224;2023-03-03T07:35:00;98742.34;;;-1.94;97.10
76050;BME280;64967;50.234;19.224;2023-03-03T07:37:36;98743.66;;;-2.00;98.79
76050;BME280;64967;50.234;19.224;2023-03-03T07:43:12;98742.56;;;-2.08;99.42
76050;BME280;64967;50.234;19.224;2023-03-03T07:45:42;98741.59;;;-2.07;99.93
76050;BME280;64967;50.234;19.224;2023-03-03T07:50:40;98720.50;;;-1.98;97.15
76050;BME280;64967;50.234;19.224;2023-03-03T07:53:33;98725.84;;;-1.87;98.46
76050;BME280;64967;50.234;19.224;2023-03-03T07:56:05;98733.06;;;-2.00;97.41
76050;BME280;64967;50.234;19.224;2023-03-03T07:58:40;98741.47;;;-2.17;98.17
76050;BME280;64967;50.234;19.224;2023-03-03T08:01:27;98743.19;;;-1.94;99.97
76050;BME280;64967;50.234;19.224;2023-03-03T08:03:57;98755.66;;;-2.18;100.00
76050;BME280;64967;50.234;19.224;2023-03-03T08:09:26;98755.94;;;-1.88;99.50
76050;BME280;64967;50.234;19.224;2023-03-03T08:14:34;98742.91;;;-2.13;99.46
76050;BME280;64967;50.234;19.224;2023-03-03T08:17:12;98748.78;;;-2.20;100.00
76050;BME280;64967;50.234;19.224;2023-03-03T08:19:40;98751.69;;;-2.23;100.00
76050;BME280;64967;50.234;19.224;2023-03-03T08:22:18;98742.41;;;-2.18;99.50
76050;BME280;64967;50.234;19.224;2023-03-03T08:24:46;98738.94;;;-2.18;99.48
76050;BME280;64967;50.234;19.224;2023-03-03T08:27:13;98746.47;;;-2.36;98.83
76050;BME280;64967;50.234;19.224;2023-03-03T08:29:40;98758.53;;;-2.32;99.68
76050;BME280;64967;50.234;19.224;2023-03-03T08:32:07;98747.63;;;-2.16;100.00
76050;BME280;64967;50.234;19.224;2023-03-03T08:34:34;98743.19;;;-1.94;100.00
76050;BME280;64967;50.234;19.224;2023-03-03T08:37:01;98753.50;;;-2.02;97.62
76050;BME280;64967;50.234;19.224;2023-03-03T08:39:28;98764.38;;;-1.94;99.04
76050;BME280;64967;50.234;19.224;2023-03-03T08:41:55;98768.59;;;-1.91;99.31
76050;BME280;64967;50.234;19.224;2023-03-03T08:44:22;98771.59;;;-1.96;100.00
76050;BME280;64967;50.234;19.224;2023-03-03T08:46:49;98776.75;;;-2.05;99.50
76050;BME280;64967;50.234;19.224;2023-03-03T08:49:16;98782.19;;;-1.96;99.13
76050;BME280;64967;50.234;19.224;2023-03-03T08:51:44;98775.94;;;-1.95;99.80
76050;BME280;64967;50.234;19.224;2023-03-03T08:54:11;98782.66;;;-2.02;99.20
76050;BME280;64967;50.234;19.224;2023-03-03T08:56:37;98777.13;;;-1.88;99.06
76050;BME280;64967;50.234;19.224;2023-03-03T08:59:04;98779.50;;;-2.07;99.98
76050;BME280;64967;50.234;19.224;2023-03-03T09:01:31;98763.16;;;-2.01;100.00
76050;BME280;64967;50.234;19.224;2023-03-03T09:03:59;98770.28;;;-1.79;100.00
76050;BME280;64967;50.234;19.224;2023-03-03T09:06:26;98764.75;;;-1.76;100.00
76050;BME280;64967;50.234;19.224;2023-03-03T09:08:53;98754.75;;;-1.50;99.65
76050;BME280;64967;50.234;19.224;2023-03-03T09:11:25;98753.03;;;-1.51;97.95
76050;BME280;64967;50.234;19.224;2023-03-03T09:14:26;98754.72;;;-1.84;99.26
76050;BME280;64967;50.234;19.224;2023-03-03T09:16:55;98761.97;;;-1.63;98.20
76050;BME280;64967;50.234;19.224;2023-03-03T09:19:29;98761.38;;;-1.67;99.27
76050;BME280;64967;50.234;19.224;2023-03-03T09:22:02;98755.94;;;-1.65;99.18
76050;BME280;64967;50.234;19.224;2023-03-03T09:24:37;98762.94;;;-1.64;99.28
76050;BME280;64967;50.234;19.224;2023-03-03T09:27:17;98743.66;;;-1.77;100.00
76050;BME280;64967;50.234;19.224;2023-03-03T09:29:45;98761.59;;;-1.48;100.00
76050;BME280;64967;50.234;19.224;2023-03-03T09:32:32;98762.66;;;-1.28;100.00
76050;BME280;64967;50.234;19.224;2023-03-03T09:37:53;98767.75;;;-1.58;100.00
76050;BME280;64967;50.234;19.224;2023-03-03T09:45:50;98771.84;;;-1.65;100.00
76050;BME280;64967;50.234;19.224;2023-03-03T09:48:43;98742.91;;;-1.46;100.00
76050;BME280;64967;50.234;19.224;2023-03-03T09:54:26;98772.06;;;-1.35;100.00
76050;BME280;64967;50.234;19.224;2023-03-03T10:05:28;98787.25;;;-1.48;100.00
76050;BME280;64967;50.234;19.224;2023-03-03T10:10:47;98769.69;;;-1.49;100.00
76050;BME280;64967;50.234;19.224;2023-03-03T10:19:00;98788.47;;;-1.41;100.00
76050;BME280;64967;50.234;19.224;2023-03-03T10:24:28;98791.25;;;-1.31;100.00
76050;BME280;64967;50.234;19.224;2023-03-03T10:30:32;98790.41;;;-1.32;100.00
76050;BME280;64967;50.234;19.224;2023-03-03T10:33:31;98785.44;;;-1.25;99.94
76050;BME280;64967;50.234;19.224;2023-03-03T10:38:57;98788.03;;;-1.03;100.00
76050;BME280;64967;50.234;19.224;2023-03-03T10:47:14;98794.94;;;-1.01;98.79
76050;BME280;64967;50.234;19.224;2023-03-03T10:53:10;98804.81;;;-1.03;97.96
76050;BME280;64967;50.234;19.224;2023-03-03T10:55:48;98800.25;;;-1.12;98.82
76050;BME280;64967;50.234;19.224;2023-03-03T10:58:49;98799.03;;;-1.08;98.01
76050;BME280;64967;50.234;19.224;2023-03-03T11:02:06;98802.91;;;-1.12;98.63
76050;BME280;64967;50.234;19.224;2023-03-03T11:12:50;98786.13;;;-1.01;95.91
76050;BME280;64967;50.234;19.224;2023-03-03T11:15:33;98784.81;;;-1.07;96.69
76050;BME280;64967;50.234;19.224;2023-03-03T11:18:16;98785.00;;;-0.87;97.60
76050;BME280;64967;50.234;19.224;2023-03-03T11:21:03;98778.72;;;-0.86;95.58
76050;BME280;64967;50.234;19.224;2023-03-03T11:29:28;98783.03;;;-0.74;94.97
76050;BME280;64967;50.234;19.224;2023-03-03T11:35:21;98790.72;;;-0.71;94.04
76050;BME280;64967;50.234;19.224;2023-03-03T11:41:03;98772.13;;;-0.39;93.29
76050;BME280;64967;50.234;19.224;2023-03-03T11:43:46;98770.53;;;-0.31;93.21
76050;BME280;64967;50.234;19.224;2023-03-03T11:46:18;98771.94;;;-0.27;92.36
76050;BME280;64967;50.234;19.224;2023-03-03T11:54:21;98781.94;;;0.02;90.59
76050;BME280;64967;50.234;19.224;2023-03-03T11:56:53;98774.94;;;0.21;89.96
76050;BME280;64967;50.234;19.224;2023-03-03T12:08:05;98774.16;;;0.10;89.90
76050;BME280;64967;50.234;19.224;2023-03-03T12:10:51;98755.03;;;0.16;89.46
76050;BME280;64967;50.234;19.224;2023-03-03T12:16:39;98764.41;;;0.20;89.24
76050;BME280;64967;50.234;19.224;2023-03-03T12:33:36;98749.00;;;-0.07;87.65
76050;BME280;64967;50.234;19.224;2023-03-03T12:39:02;98747.56;;;0.10;88.04
76050;BME280;64967;50.234;19.224;2023-03-03T12:44:23;98752.94;;;0.19;88.34
76050;BME280;64967;50.234;19.224;2023-03-03T12:50:19;98742.50;;;0.37;86.30
76050;BME280;64967;50.234;19.224;2023-03-03T12:55:48;98740.00;;;0.75;84.81
76050;BME280;64967;50.234;19.224;2023-03-03T13:01:07;98736.63;;;0.73;83.57
76050;BME280;64967;50.234;19.224;2023-03-03T13:06:31;98730.91;;;0.38;83.93
76050;BME280;64967;50.234;19.224;2023-03-03T13:09:21;98727.97;;;0.31;84.41
76050;BME280;64967;50.234;19.224;2023-03-03T13:14:59;98730.22;;;0.45;85.09
76050;BME280;64967;50.234;19.224;2023-03-03T13:17:36;98720.06;;;0.60;84.51
76050;BME280;64967;50.234;19.224;2023-03-03T13:20:29;98725.38;;;0.60;85.47
76050;BME280;64967;50.234;19.224;2023-03-03T13:25:56;98734.97;;;0.92;85.19
76050;BME280;64967;50.234;19.224;2023-03-03T13:31:20;98731.81;;;1.07;83.20
76050;BME280;64967;50.234;19.224;2023-03-03T13:33:56;98730.66;;;1.00;82.34
76050;BME280;64967;50.234;19.224;2023-03-03T13:36:39;98728.16;;;0.49;86.02
76050;BME280;64967;50.234;19.224;2023-03-03T13:39:21;98728.16;;;0.49;87.08
76050;BME280;64967;50.234;19.224;2023-03-03T13:41:58;98727.00;;;0.42;87.02
76050;BME280;64967;50.234;19.224;2023-03-03T13:44:36;98728.16;;;0.19;87.90
76050;BME280;64967;50.234;19.224;2023-03-03T13:52:23;98694.84;;;0.45;84.83
76050;BME280;64967;50.234;19.224;2023-03-03T14:02:42;98723.47;;;0.81;82.92
76050;BME280;64967;50.234;19.224;2023-03-03T14:05:39;98722.88;;;0.68;83.85
76050;BME280;64967;50.234;19.224;2023-03-03T14:08:22;98724.03;;;0.75;83.49
76050;BME280;64967;50.234;19.224;2023-03-03T14:11:04;98717.47;;;0.89;82.42
76050;BME280;64967;50.234;19.224;2023-03-03T14:13:45;98719.59;;;0.85;82.49
76050;BME280;64967;50.234;19.224;2023-03-03T14:16:19;98713.94;;;0.79;83.33
76050;BME280;64967;50.234;19.224;2023-03-03T14:19:01;98721.75;;;0.61;83.29
76050;BME280;64967;50.234;19.224;2023-03-03T14:21:35;98725.94;;;0.64;83.91
76050;BME280;64967;50.234;19.224;2023-03-03T14:24:15;98720.94;;;0.70;83.06
76050;BME280;64967;50.234;19.224;2023-03-03T14:26:57;98720.13;;;0.79;82.65
76050;BME280;64967;50.234;19.224;2023-03-03T14:31:52;98709.44;;;0.20;85.14
76050;BME280;64967;50.234;19.224;2023-03-03T14:36:51;98717.47;;;0.09;87.08
76050;BME280;64967;50.234;19.224;2023-03-03T14:39:38;98713.16;;;0.08;86.86
76050;BME280;64967;50.234;19.224;2023-03-03T14:42:29;98711.41;;;-0.03;87.14
76050;BME280;64967;50.234;19.224;2023-03-03T14:44:57;98721.53;;;0.04;87.08
76050;BME280;64967;50.234;19.224;2023-03-03T14:47:28;98707.00;;;0.08;86.42
76050;BME280;64967;50.234;19.224;2023-03-03T14:49:56;98717.69;;;0.17;85.06
76050;BME280;64967;50.234;19.224;2023-03-03T14:52:30;98717.53;;;0.19;84.07
76050;BME280;64967;50.234;19.224;2023-03-03T14:55:01;98717.91;;;0.14;84.16
76050;BME280;64967;50.234;19.224;2023-03-03T15:00:25;98702.28;;;-0.10;83.07
76050;BME280;64967;50.234;19.224;2023-03-03T15:05:49;98717.69;;;-0.04;84.90
76050;BME280;64967;50.234;19.224;2023-03-03T15:08:26;98716.72;;;-0.03;84.69
76050;BME280;64967;50.234;19.224;2023-03-03T15:11:12;98712.53;;;-0.05;84.61
76050;BME280;64967;50.234;19.224;2023-03-03T15:13:39;98707.50;;;0.02;83.72
76050;BME280;64967;50.234;19.224;2023-03-03T15:16:11;98704.16;;;-0.01;84.61
76050;BME280;64967;50.234;19.224;2023-03-03T15:19:11;98703.00;;;-0.08;85.39
76050;BME280;64967;50.234;19.224;2023-03-03T15:21:51;98698.22;;;-0.14;85.17
76050;BME280;64967;50.234;19.224;2023-03-03T15:24:33;98677.94;;;-0.15;84.76
76050;BME280;64967;50.234;19.224;2023-03-03T15:27:18;98705.06;;;-0.11;85.08
76050;BME280;64967;50.234;19.224;2023-03-03T15:29:54;98705.66;;;-0.08;85.34
76050;BME280;64967;50.234;19.224;2023-03-03T15:32:47;98702.06;;;0.03;84.43
76050;BME280;64967;50.234;19.224;2023-03-03T15:35:32;98706.03;;;0.09;83.87
76050;BME280;64967;50.234;19.224;2023-03-03T15:38:22;98704.34;;;-0.13;84.03
76050;BME280;64967;50.234;19.224;2023-03-03T15:43:36;98705.81;;;-0.30;85.38
76050;BME280;64967;50.234;19.224;2023-03-03T15:46:27;98708.97;;;-0.36;86.47
76050;BME280;64967;50.234;19.224;2023-03-03T15:49:12;98710.25;;;-0.30;85.83
76050;BME280;64967;50.234;19.224;2023-03-03T15:52:06;98702.75;;;-0.25;84.81
76050;BME280;64967;50.234;19.224;2023-03-03T15:57:44;98708.00;;;-0.14;84.74
76050;BME280;64967;50.234;19.224;2023-03-03T16:02:57;98700.38;;;-0.28;85.87
76050;BME280;64967;50.234;19.224;2023-03-03T16:05:34;98702.34;;;-0.21;85.92
76050;BME280;64967;50.234;19.224;2023-03-03T16:08:16;98710.78;;;-0.16;87.20
76050;BME280;64967;50.234;19.224;2023-03-03T16:11:06;98713.50;;;-0.27;86.49
76050;BME280;64967;50.234;19.224;2023-03-03T16:13:54;98705.28;;;-0.24;86.32
76050;BME280;64967;50.234;19.224;2023-03-03T16:16:37;98707.28;;;-0.16;86.92